Time;durP1;ratioP1;P1;durP2;ratioP2;P2;SDS_P1;SDS_P2;PMS_P1;PMS_P2;Temp;Humidity;BMP_temperature;BMP_pressure;BME280_temperature;BME280_humidity;BME280_pressure;Samples;Min_cycle;Max_cycle;Signal;HPM_P1;HPM_P2
2021/12/28 00:01:02;;;;;;;1.63;1.20;;;18.20;43.50;;;;;;5013340;28;20033;-71
2021/12/28 00:03:28;;;;;;;1.77;1.30;;;18.10;43.40;;;;;;5013253;28;20029;-71
2021/12/28 00:05:54;;;;;;;1.95;1.50;;;18.10;43.40;;;;;;5013052;28;20116;-71
2021/12/28 00:08:19;;;;;;;1.45;1.10;;;18.10;43.40;;;;;;5013553;28;20172;-71
2021/12/28 00:10:46;;;;;;;1.63;1.52;;;18.20;43.50;;;;;;5013264;28;20022;-71
2021/12/28 00:13:12;;;;;;;1.50;1.30;;;18.20;43.50;;;;;;5013199;28;20021;-71
2021/12/28 00:15:49;;;;;;;1.55;1.23;;;18.20;43.50;;;;;;5013057;28;20425;-71
2021/12/28 00:18:16;;;;;;;1.38;1.27;;;18.20;43.50;;;;;;5004434;28;20050;-71
2021/12/28 00:20:44;;;;;;;1.42;1.27;;;18.20;43.50;;;;;;4992190;28;20019;-71
2021/12/28 00:23:22;;;;;;;1.77;1.20;;;18.20;43.50;;;;;;4993375;28;20406;-71
2021/12/28 00:25:49;;;;;;;1.67;1.30;;;18.20;43.50;;;;;;4993493;28;20038;-71
2021/12/28 00:28:15;;;;;;;1.50;1.30;;;18.10;44.00;;;;;;4996017;28;20109;-71
2021/12/28 00:30:42;;;;;;;2.65;1.30;;;18.10;43.40;;;;;;5012825;28;20076;-71
2021/12/28 00:33:08;;;;;;;2.22;1.40;;;18.10;43.40;;;;;;5013076;28;20478;-71
2021/12/28 00:35:36;;;;;;;1.50;1.30;;;18.10;43.40;;;;;;5012902;28;20026;-71
2021/12/28 00:38:04;;;;;;;1.65;1.20;;;18.10;43.40;;;;;;5011547;28;20026;-71
2021/12/28 00:40:31;;;;;;;1.70;1.23;;;18.10;43.50;;;;;;4993190;28;20110;-71
2021/12/28 00:42:57;;;;;;;1.58;1.27;;;18.10;43.40;;;;;;4993338;28;20031;-71
2021/12/28 00:45:22;;;;;;;1.58;1.25;;;18.10;43.40;;;;;;4993091;28;20026;-71
2021/12/28 00:47:48;;;;;;;1.40;1.30;;;18.10;43.40;;;;;;4993318;28;20036;-71
2021/12/28 00:50:16;;;;;;;1.27;1.08;;;18.10;43.40;;;;;;4993185;28;20073;-71
2021/12/28 00:52:43;;;;;;;1.73;1.40;;;18.10;43.40;;;;;;4993172;28;20109;-71
2021/12/28 00:55:10;;;;;;;1.58;1.27;;;18.10;43.40;;;;;;4993146;28;20026;-71
2021/12/28 00:57:36;;;;;;;3.03;1.23;;;18.10;43.40;;;;;;4993340;28;20037;-71
2021/12/28 01:00:06;;;;;;;1.48;1.35;;;18.10;43.40;;;;;;4995052;28;20026;-71
2021/12/28 01:02:32;;;;;;;1.77;1.33;;;18.10;43.40;;;;;;4997046;28;20077;-71
2021/12/28 01:04:57;;;;;;;2.05;1.30;;;18.10;43.40;;;;;;4996880;28;20027;-71
2021/12/28 01:07:23;;;;;;;2.05;1.40;;;18.10;43.40;;;;;;4996892;28;20573;-71
2021/12/28 01:09:49;;;;;;;2.95;1.40;;;18.10;43.40;;;;;;4995765;28;20027;-71
2021/12/28 01:12:15;;;;;;;2.15;1.25;;;18.10;43.40;;;;;;4996936;28;20030;-71
2021/12/28 01:14:40;;;;;;;2.42;1.50;;;18.10;43.40;;;;;;4996844;28;20030;-71
2021/12/28 01:17:07;;;;;;;1.40;1.20;;;18.10;43.30;;;;;;4995913;28;20505;-71
2021/12/28 01:19:33;;;;;;;1.50;1.20;;;18.10;43.30;;;;;;5016148;28;20030;-72
2021/12/28 01:22:01;;;;;;;1.20;1.02;;;18.10;43.30;;;;;;5016271;28;20045;-71
2021/12/28 01:24:28;;;;;;;1.50;1.10;;;18.10;43.30;;;;;;5016217;28;20022;-71
2021/12/28 01:26:53;;;;;;;1.67;1.20;;;18.10;43.30;;;;;;5016221;28;20364;-71
2021/12/28 01:29:19;;;;;;;2.58;1.40;;;18.10;43.30;;;;;;5011475;28;20113;-71
2021/12/28 01:31:44;;;;;;;1.73;1.40;;;18.10;43.30;;;;;;4996525;28;20019;-71
2021/12/28 01:34:10;;;;;;;1.88;1.27;;;18.10;43.30;;;;;;4996647;28;20438;-71
2021/12/28 01:36:35;;;;;;;1.77;1.17;;;18.10;43.30;;;;;;5002773;28;20029;-71
2021/12/28 01:39:04;;;;;;;1.83;1.38;;;18.10;43.30;;;;;;5015977;28;20427;-71
2021/12/28 01:41:29;;;;;;;1.52;1.25;;;18.10;43.30;;;;;;5015818;28;20371;-71
2021/12/28 01:44:00;;;;;;;1.48;1.10;;;18.10;43.30;;;;;;5015736;28;20029;-71
2021/12/28 01:46:25;;;;;;;1.77;1.30;;;18.10;43.30;;;;;;5015808;28;20026;-71
2021/12/28 01:48:51;;;;;;;2.03;1.42;;;18.10;43.30;;;;;;5015773;28;20153;-71
2021/12/28 01:51:20;;;;;;;1.92;1.33;;;18.10;43.30;;;;;;5014494;28;20026;-71
2021/12/28 01:53:47;;;;;;;1.70;1.38;;;18.10;43.30;;;;;;5015814;28;20048;-71
2021/12/28 01:56:19;;;;;;;1.77;1.30;;;18.10;43.30;;;;;;5015586;28;20034;-71
2021/12/28 01:58:45;;;;;;;2.25;1.15;;;18.00;43.20;;;;;;5015664;28;20033;-71
2021/12/28 02:01:11;;;;;;;1.80;1.17;;;18.00;43.20;;;;;;5015420;28;20025;-71
2021/12/28 02:03:39;;;;;;;2.10;1.33;;;18.10;43.30;;;;;;5015448;28;20509;-71
2021/12/28 02:06:06;;;;;;;1.70;1.13;;;18.00;43.20;;;;;;5015211;28;20194;-71
2021/12/28 02:08:31;;;;;;;1.80;1.20;;;18.00;43.20;;;;;;5015334;28;20038;-71
2021/12/28 02:10:58;;;;;;;1.80;1.20;;;18.00;43.20;;;;;;5013570;28;20101;-71
2021/12/28 02:13:25;;;;;;;1.67;1.25;;;18.00;43.20;;;;;;5015423;28;20076;-71
2021/12/28 02:15:51;;;;;;;2.25;1.23;;;18.00;43.20;;;;;;5015185;28;20497;-71
2021/12/28 02:18:19;;;;;;;1.73;1.20;;;18.00;43.20;;;;;;5005957;28;20097;-71
2021/12/28 02:20:46;;;;;;;2.13;1.48;;;18.00;43.10;;;;;;4995486;28;20018;-71
2021/12/28 02:23:13;;;;;;;2.13;0.93;;;18.00;43.10;;;;;;4994300;28;20022;-71
2021/12/28 02:25:39;;;;;;;1.95;1.10;;;18.00;43.20;;;;;;4995535;28;20514;-71
2021/12/28 02:28:08;;;;;;;1.73;1.17;;;18.00;43.20;;;;;;4996741;28;20075;-71
2021/12/28 02:30:35;;;;;;;1.45;1.08;;;18.00;43.20;;;;;;5014863;28;20026;-71
2021/12/28 02:33:01;;;;;;;1.75;1.20;;;18.00;43.20;;;;;;5014824;28;20030;-71
2021/12/28 02:35:27;;;;;;;2.08;1.13;;;18.00;43.20;;;;;;5014861;28;20032;-71
2021/12/28 02:37:54;;;;;;;2.35;1.30;;;18.00;43.10;;;;;;5014723;28;20101;-71
2021/12/28 02:40:25;;;;;;;2.65;1.35;;;18.00;43.10;;;;;;5014660;28;20038;-71
2021/12/28 02:42:51;;;;;;;2.03;1.30;;;18.00;43.10;;;;;;5014761;28;20394;-71
2021/12/28 02:45:23;;;;;;;1.77;1.20;;;18.00;43.10;;;;;;5014599;28;20024;-71
2021/12/28 02:47:49;;;;;;;1.38;1.00;;;18.00;43.20;;;;;;5014732;28;20022;-71
2021/12/28 02:50:27;;;;;;;2.28;1.30;;;18.00;43.10;;;;;;5014637;28;20026;-71
2021/12/28 02:52:54;;;;;;;1.75;1.25;;;18.00;43.10;;;;;;5014477;28;20030;-71
2021/12/28 02:55:21;;;;;;;2.00;1.15;;;18.00;43.20;;;;;;5014596;28;20065;-71
2021/12/28 02:57:56;;;;;;;1.65;1.00;;;18.00;43.20;;;;;;5014447;28;20026;-71
2021/12/28 03:00:38;;;;;;;2.15;1.15;;;18.00;43.20;;;;;;5014428;28;20030;-71
2021/12/28 03:03:13;;;;;;;2.08;1.20;;;18.00;43.10;;;;;;5014387;28;20445;-71
2021/12/28 03:05:41;;;;;;;1.80;1.08;;;18.00;43.20;;;;;;5014152;28;20486;-71
2021/12/28 03:08:07;;;;;;;1.63;1.10;;;17.90;43.20;;;;;;5014242;28;20479;-71
2021/12/28 03:10:34;;;;;;;1.38;1.02;;;17.90;43.20;;;;;;5012899;28;20030;-71
2021/12/28 03:12:59;;;;;;;1.38;0.93;;;17.90;43.20;;;;;;5012861;28;20089;-71
2021/12/28 03:15:25;;;;;;;1.65;1.27;;;17.90;43.10;;;;;;5014084;28;20478;-71
2021/12/28 03:17:51;;;;;;;1.10;1.00;;;18.00;43.20;;;;;;5008388;28;20026;-71
2021/12/28 03:20:17;;;;;;;1.77;1.30;;;18.00;43.20;;;;;;4994394;28;20030;-71
2021/12/28 03:22:44;;;;;;;1.98;1.17;;;17.90;43.10;;;;;;4992244;28;20018;-71
2021/12/28 03:25:10;;;;;;;1.40;1.13;;;17.90;43.10;;;;;;4994212;28;20030;-71
2021/12/28 03:27:36;;;;;;;2.17;1.20;;;17.90;43.10;;;;;;4993111;28;20505;-71
2021/12/28 03:30:05;;;;;;;3.85;1.10;;;18.00;43.20;;;;;;5011222;28;20018;-71
2021/12/28 03:32:30;;;;;;;1.65;1.00;;;17.90;43.10;;;;;;5013727;28;20018;-71
2021/12/28 03:34:56;;;;;;;1.52;1.20;;;17.90;43.10;;;;;;5013793;28;20026;-71
2021/12/28 03:37:22;;;;;;;2.55;1.17;;;17.90;43.10;;;;;;5013610;28;20025;-71
2021/12/28 03:39:47;;;;;;;1.40;1.20;;;17.90;43.10;;;;;;5012368;28;20025;-71
2021/12/28 03:42:13;;;;;;;1.30;1.00;;;17.90;43.10;;;;;;5013694;28;20018;-71
2021/12/28 03:44:38;;;;;;;1.33;1.10;;;17.90;43.10;;;;;;5013528;28;20088;-71
2021/12/28 03:47:06;;;;;;;1.73;1.10;;;17.90;43.10;;;;;;5013565;28;20022;-71
2021/12/28 03:49:32;;;;;;;2.35;1.10;;;17.90;43.10;;;;;;5013492;28;20390;-71
2021/12/28 03:51:58;;;;;;;1.95;1.20;;;17.90;43.10;;;;;;5013648;28;20034;-71
2021/12/28 03:54:23;;;;;;;2.40;1.00;;;17.90;43.10;;;;;;5013404;28;20034;-71
2021/12/28 03:56:49;;;;;;;1.17;0.82;;;17.90;43.10;;;;;;5013524;28;20437;-71
2021/12/28 03:59:14;;;;;;;3.00;1.40;;;17.90;43.10;;;;;;5013392;28;20041;-71
2021/12/28 04:01:39;;;;;;;1.27;0.93;;;17.90;43.10;;;;;;5012139;28;20450;-71
2021/12/28 04:04:05;;;;;;;1.85;1.08;;;17.90;43.10;;;;;;5013166;28;20153;-71
2021/12/28 04:06:31;;;;;;;1.75;1.23;;;17.90;43.10;;;;;;5013468;28;20041;-70
2021/12/28 04:08:58;;;;;;;1.85;1.20;;;17.90;43.20;;;;;;5012983;28;20022;-71
2021/12/28 04:13:51;;;;;;;1.52;1.00;;;17.90;43.10;;;;;;5013455;28;20117;-71
2021/12/28 04:16:18;;;;;;;2.22;0.90;;;17.90;43.20;;;;;;5013203;28;20034;-71
2021/12/28 04:18:43;;;;;;;1.70;1.10;;;17.90;43.10;;;;;;5000254;28;20101;-71
2021/12/28 04:21:10;;;;;;;1.67;1.10;;;17.90;43.10;;;;;;4992112;28;20168;-71
2021/12/28 04:23:36;;;;;;;1.23;1.10;;;17.90;43.10;;;;;;4993227;28;20030;-71
2021/12/28 04:26:04;;;;;;;1.38;1.20;;;17.90;43.10;;;;;;4993338;28;20024;-71
2021/12/28 04:28:30;;;;;;;1.30;1.02;;;17.90;43.10;;;;;;4996518;28;20010;-71
2021/12/28 04:30:56;;;;;;;2.55;1.30;;;17.90;43.10;;;;;;5012927;28;20026;-71
2021/12/28 04:33:22;;;;;;;1.77;1.00;;;17.90;43.10;;;;;;5011585;28;20529;-71
2021/12/28 04:35:48;;;;;;;1.40;1.00;;;17.90;43.10;;;;;;5012606;28;20474;-71
2021/12/28 04:38:14;;;;;;;1.25;1.00;;;17.90;43.10;;;;;;5012668;28;20097;-71
2021/12/28 04:40:40;;;;;;;2.38;1.23;;;17.90;43.10;;;;;;5012916;28;20034;-71
2021/12/28 04:43:07;;;;;;;1.80;0.95;;;17.90;43.10;;;;;;5012794;28;20022;-71
2021/12/28 04:45:36;;;;;;;2.05;1.20;;;17.90;44.10;;;;;;5012691;28;20067;-72
2021/12/28 04:48:02;;;;;;;2.25;1.30;;;17.90;43.10;;;;;;5012760;28;20088;-71
2021/12/28 04:50:28;;;;;;;1.65;1.10;;;17.90;43.10;;;;;;5012821;28;20022;-71
2021/12/28 04:52:56;;;;;;;1.85;0.90;;;17.90;43.10;;;;;;5011650;28;20072;-71
2021/12/28 04:55:22;;;;;;;1.42;1.00;;;17.90;43.10;;;;;;5012804;28;20496;-71
2021/12/28 04:57:48;;;;;;;2.75;1.20;;;17.90;43.20;;;;;;5012687;28;20073;-71
2021/12/28 05:00:21;;;;;;;1.67;0.85;;;17.90;43.20;;;;;;5012653;28;20110;-71
2021/12/28 05:02:47;;;;;;;1.67;1.10;;;17.90;43.10;;;;;;5012747;28;20033;-71
2021/12/28 05:05:13;;;;;;;3.40;1.15;;;17.90;43.20;;;;;;5012552;28;20037;-71
2021/12/28 05:07:39;;;;;;;1.92;1.00;;;17.90;43.20;;;;;;5012547;28;20057;-71
2021/12/28 05:10:05;;;;;;;1.65;1.00;;;17.90;43.20;;;;;;5011302;28;20112;-71
2021/12/28 05:12:31;;;;;;;1.52;1.15;;;17.90;43.20;;;;;;5012588;28;20018;-71
2021/12/28 05:14:59;;;;;;;1.40;1.20;;;17.90;43.20;;;;;;5011492;28;20029;-71
2021/12/28 05:17:26;;;;;;;1.42;0.90;;;17.90;43.20;;;;;;5010464;28;20021;-71
2021/12/28 05:19:52;;;;;;;1.65;1.10;;;17.90;43.20;;;;;;4991735;28;20041;-71
2021/12/28 05:22:18;;;;;;;1.50;0.90;;;17.90;43.20;;;;;;4993004;28;20034;-71
2021/12/28 05:24:43;;;;;;;2.00;0.88;;;17.90;43.20;;;;;;4992648;28;20042;-71
2021/12/28 05:27:09;;;;;;;1.08;0.85;;;17.90;43.20;;;;;;4993004;28;20018;-71
2021/12/28 05:29:34;;;;;;;3.00;0.98;;;17.90;43.20;;;;;;5004809;28;20024;-71
2021/12/28 05:32:00;;;;;;;1.95;1.08;;;17.90;43.20;;;;;;5011223;28;20022;-71
2021/12/28 05:34:25;;;;;;;2.35;0.98;;;17.90;43.20;;;;;;5012449;28;20034;-71
2021/12/28 05:36:51;;;;;;;2.90;1.02;;;17.90;43.20;;;;;;5012394;28;20037;-71
2021/12/28 05:39:17;;;;;;;1.92;0.80;;;17.80;43.10;;;;;;5012323;28;20086;-71
2021/12/28 05:41:42;;;;;;;1.75;1.00;;;17.90;43.30;;;;;;5012299;28;20021;-71
2021/12/28 05:44:08;;;;;;;2.40;1.00;;;17.90;43.30;;;;;;5012166;28;20038;-71
2021/12/28 05:46:33;;;;;;;1.48;1.05;;;17.90;43.30;;;;;;5013419;28;20033;-71
2021/12/28 05:48:59;;;;;;;2.70;1.10;;;17.90;43.30;;;;;;5015901;28;20364;-71
2021/12/28 05:51:24;;;;;;;1.05;0.82;;;17.90;43.30;;;;;;5014571;28;20026;-71
2021/12/28 05:53:50;;;;;;;1.58;0.82;;;17.90;43.30;;;;;;5015816;28;20041;-71
2021/12/28 05:56:16;;;;;;;1.75;1.00;;;18.00;43.40;;;;;;5014624;28;20029;-71
2021/12/28 05:58:41;;;;;;;2.13;1.00;;;18.00;43.30;;;;;;5014532;28;20025;-71
2021/12/28 06:01:07;;;;;;;1.10;0.75;;;18.00;43.40;;;;;;5015505;28;20108;-71
2021/12/28 06:03:32;;;;;;;1.50;0.70;;;18.00;43.30;;;;;;5015536;28;20056;-71
2021/12/28 06:05:58;;;;;;;1.35;0.70;;;18.10;43.30;;;;;;5015300;28;20037;-71
2021/12/28 06:08:23;;;;;;;2.15;1.05;;;18.10;43.30;;;;;;5015640;28;20477;-71
2021/12/28 06:10:49;;;;;;;1.95;1.00;;;18.10;43.20;;;;;;5014160;28;20029;-71
2021/12/28 06:13:15;;;;;;;1.00;0.80;;;18.20;43.20;;;;;;5015455;28;20037;-71
2021/12/28 06:15:40;;;;;;;1.55;0.85;;;18.30;43.30;;;;;;5015271;28;20030;-71
2021/12/28 06:18:06;;;;;;;2.58;1.00;;;18.30;43.30;;;;;;5007710;28;20033;-71
2021/12/28 06:20:31;;;;;;;1.67;0.90;;;18.30;43.20;;;;;;4995802;28;20029;-71
2021/12/28 06:22:57;;;;;;;1.10;0.90;;;18.40;43.20;;;;;;4994584;28;20081;-71
2021/12/28 06:25:24;;;;;;;1.40;0.90;;;18.40;43.10;;;;;;4995581;28;20030;-71
2021/12/28 06:27:49;;;;;;;1.30;0.90;;;18.40;43.00;;;;;;4995566;28;20030;-71
2021/12/28 06:30:15;;;;;;;0.93;0.80;;;18.50;43.00;;;;;;5014132;28;20386;-71
2021/12/28 06:32:41;;;;;;;1.60;0.90;;;18.50;43.00;;;;;;5014020;28;20109;-71
2021/12/28 06:35:08;;;;;;;2.13;1.10;;;18.50;43.00;;;;;;5013628;28;20506;-71
2021/12/28 06:37:33;;;;;;;1.33;0.73;;;18.50;42.90;;;;;;5015025;28;20492;-71
2021/12/28 06:40:00;;;;;;;1.55;0.90;;;18.60;42.90;;;;;;5013420;28;20026;-71
2021/12/28 06:42:25;;;;;;;2.42;1.00;;;18.60;42.90;;;;;;5014994;28;20511;-71
2021/12/28 06:44:52;;;;;;;1.60;0.80;;;18.60;42.90;;;;;;5014808;28;20034;-71
2021/12/28 06:47:18;;;;;;;1.85;0.80;;;18.60;42.90;;;;;;5014949;28;20022;-71
2021/12/28 06:49:45;;;;;;;2.33;0.85;;;18.70;42.90;;;;;;5014900;28;20028;-71
2021/12/28 06:52:11;;;;;;;2.38;0.90;;;18.70;42.80;;;;;;5014693;28;20364;-71
2021/12/28 06:54:37;;;;;;;1.15;0.68;;;18.70;42.80;;;;;;5014784;28;20026;-71
2021/12/28 06:57:09;;;;;;;2.05;0.98;;;18.70;42.80;;;;;;5013134;28;20033;-71
2021/12/28 06:59:37;;;;;;;2.88;0.82;;;18.80;42.90;;;;;;5014760;28;20492;-71
2021/12/28 07:02:04;;;;;;;1.42;0.90;;;18.80;42.80;;;;;;5014596;28;20443;-71
2021/12/28 07:04:30;;;;;;;1.98;0.82;;;18.80;42.70;;;;;;5013346;28;20117;-71
2021/12/28 07:06:55;;;;;;;1.48;0.73;;;18.80;42.70;;;;;;5013025;28;20466;-71
2021/12/28 07:09:21;;;;;;;1.48;0.73;;;18.80;42.70;;;;;;5014414;28;20024;-71
2021/12/28 07:11:47;;;;;;;1.52;0.75;;;18.80;42.70;;;;;;5014606;28;20022;-71
2021/12/28 07:14:12;;;;;;;1.40;0.93;;;18.90;42.70;;;;;;5014551;28;20056;-71
2021/12/28 07:16:38;;;;;;;1.35;0.70;;;18.90;42.70;;;;;;5014391;28;20037;-71
2021/12/28 07:19:05;;;;;;;0.73;0.60;;;18.90;42.70;;;;;;4998846;28;20022;-71
2021/12/28 07:21:31;;;;;;;1.38;0.80;;;18.90;42.70;;;;;;4994595;28;20029;-71
2021/12/28 07:23:56;;;;;;;1.70;0.80;;;18.90;42.70;;;;;;4994543;28;20475;-71
2021/12/28 07:26:21;;;;;;;1.98;1.13;;;18.90;42.70;;;;;;4994497;28;20022;-71
2021/12/28 07:28:47;;;;;;;0.98;0.80;;;19.00;42.70;;;;;;5001357;28;20493;-71
2021/12/28 07:31:12;;;;;;;2.38;1.00;;;19.00;42.70;;;;;;5013946;28;20018;-71
2021/12/28 07:33:38;;;;;;;1.10;0.70;;;19.00;42.70;;;;;;5014164;28;20509;-71
2021/12/28 07:36:04;;;;;;;1.70;0.80;;;19.00;42.70;;;;;;5012549;28;20532;-71
2021/12/28 07:38:29;;;;;;;1.30;0.73;;;19.00;42.60;;;;;;5013906;28;20014;-71
2021/12/28 07:40:55;;;;;;;1.65;0.93;;;19.00;42.60;;;;;;5013898;28;20029;-71
2021/12/28 07:43:20;;;;;;;1.75;0.80;;;19.00;42.70;;;;;;5013972;28;20128;-71
2021/12/28 07:45:46;;;;;;;2.40;1.08;;;19.00;42.60;;;;;;5013834;28;20449;-71
2021/12/28 07:48:12;;;;;;;1.67;0.80;;;19.10;42.70;;;;;;5013928;28;20084;-71
2021/12/28 07:50:37;;;;;;;1.52;0.60;;;19.10;42.60;;;;;;5012636;28;20108;-71
2021/12/28 07:53:03;;;;;;;1.55;0.75;;;19.10;42.60;;;;;;5013826;28;20104;-71
2021/12/28 07:55:28;;;;;;;1.55;0.70;;;19.10;42.60;;;;;;5013542;28;20049;-71
2021/12/28 07:57:54;;;;;;;2.25;0.80;;;19.10;42.70;;;;;;5013564;28;20072;-71
2021/12/28 08:00:23;;;;;;;2.63;1.08;;;19.10;42.70;;;;;;5013639;28;20386;-71
2021/12/28 08:02:48;;;;;;;2.25;0.93;;;19.20;42.70;;;;;;5013576;28;20490;-71
2021/12/28 08:05:15;;;;;;;1.25;0.73;;;19.20;42.60;;;;;;5013663;28;20030;-71
2021/12/28 08:07:41;;;;;;;2.22;0.85;;;19.20;42.60;;;;;;5013784;28;20494;-69
2021/12/28 08:10:08;;;;;;;1.17;0.50;;;19.20;42.60;;;;;;5012735;28;20056;-71
2021/12/28 08:12:34;;;;;;;1.50;0.90;;;19.20;42.60;;;;;;5012120;28;20029;-71
2021/12/28 08:14:59;;;;;;;1.38;0.63;;;19.20;42.60;;;;;;5012121;28;20037;-71
2021/12/28 08:17:26;;;;;;;1.70;0.80;;;19.20;42.60;;;;;;5011253;28;20022;-71
2021/12/28 08:19:52;;;;;;;1.73;0.70;;;19.20;42.60;;;;;;4994167;28;20514;-72
2021/12/28 08:22:17;;;;;;;1.65;0.77;;;19.20;42.60;;;;;;4993740;28;20037;-71
2021/12/28 08:24:43;;;;;;;1.20;0.63;;;19.20;42.60;;;;;;4993806;28;20557;-71
2021/12/28 08:27:08;;;;;;;1.88;0.80;;;19.20;42.60;;;;;;4993723;28;20027;-71
2021/12/28 08:29:34;;;;;;;1.50;0.70;;;19.20;42.60;;;;;;5005471;28;20029;-70
2021/12/28 08:31:59;;;;;;;1.20;0.70;;;19.30;43.60;;;;;;5013246;28;20594;-72
2021/12/28 08:34:25;;;;;;;1.25;0.77;;;19.20;42.60;;;;;;5012045;28;20125;-71
2021/12/28 08:36:50;;;;;;;1.30;0.70;;;19.30;42.60;;;;;;5013036;28;20065;-71
2021/12/28 08:39:16;;;;;;;2.00;0.77;;;19.30;42.60;;;;;;5013194;28;20605;-71
2021/12/28 08:41:41;;;;;;;1.63;0.60;;;19.30;42.60;;;;;;5012092;28;20034;-71
2021/12/28 08:44:07;;;;;;;2.22;0.80;;;19.30;42.60;;;;;;5013209;28;20034;-71
2021/12/28 08:46:32;;;;;;;1.60;0.70;;;19.30;42.60;;;;;;5011868;28;20037;-71
2021/12/28 08:48:58;;;;;;;1.65;0.90;;;19.30;42.60;;;;;;5011642;28;20014;-72
2021/12/28 08:51:24;;;;;;;1.67;0.57;;;19.30;42.60;;;;;;5013030;28;20028;-71
2021/12/28 08:53:49;;;;;;;1.85;0.65;;;19.30;42.60;;;;;;5012955;28;20430;-71
2021/12/28 08:56:15;;;;;;;0.93;0.50;;;19.30;42.60;;;;;;5011697;28;20049;-71
2021/12/28 08:58:40;;;;;;;1.52;0.50;;;19.30;42.60;;;;;;5013222;28;20034;-71
2021/12/28 09:01:06;;;;;;;1.67;0.70;;;19.40;42.70;;;;;;5012759;28;20033;-71
2021/12/28 09:03:32;;;;;;;1.75;0.75;;;19.40;42.60;;;;;;5012882;28;20057;-72
2021/12/28 09:05:58;;;;;;;1.48;0.70;;;19.40;42.70;;;;;;5012814;28;20038;-71
2021/12/28 09:08:24;;;;;;;1.88;0.60;;;19.40;42.60;;;;;;5013094;28;20061;-71
2021/12/28 09:10:49;;;;;;;2.38;0.85;;;19.40;42.60;;;;;;5011813;28;20382;-71
2021/12/28 09:13:16;;;;;;;1.95;0.73;;;19.40;42.60;;;;;;5013283;28;20029;-71
2021/12/28 09:15:42;;;;;;;0.82;0.50;;;19.40;42.60;;;;;;5012756;28;20482;-71
2021/12/28 09:18:08;;;;;;;1.05;0.55;;;19.40;42.60;;;;;;5004811;28;20389;-71
2021/12/28 09:20:34;;;;;;;1.27;0.65;;;19.40;42.70;;;;;;4994347;28;20033;-71
2021/12/28 09:23:00;;;;;;;0.68;0.52;;;19.40;42.60;;;;;;4997077;28;20089;-71
2021/12/28 09:25:25;;;;;;;1.38;0.55;;;19.40;42.60;;;;;;4997018;28;20574;-72
2021/12/28 09:27:52;;;;;;;1.42;0.52;;;19.40;42.60;;;;;;4996971;28;20157;-71
2021/12/28 09:30:18;;;;;;;1.27;0.70;;;19.40;42.60;;;;;;5016007;28;20068;-71
2021/12/28 09:32:44;;;;;;;1.20;0.50;;;19.40;42.60;;;;;;5016395;28;20418;-71
2021/12/28 09:35:11;;;;;;;1.65;0.60;;;19.50;42.70;;;;;;5016607;28;20109;-71
2021/12/28 09:37:37;;;;;;;0.60;0.50;;;19.50;42.70;;;;;;5016294;28;20061;-73
2021/12/28 09:40:07;;;;;;;0.57;0.40;;;19.50;42.70;;;;;;5016319;28;20026;-71
2021/12/28 09:42:33;;;;;;;0.90;0.45;;;19.50;42.70;;;;;;5014806;28;20036;-71
2021/12/28 09:44:58;;;;;;;1.17;0.60;;;19.50;42.70;;;;;;5016247;28;20498;-71
2021/12/28 09:47:24;;;;;;;0.80;0.50;;;19.50;42.70;;;;;;5016411;28;20028;-71
2021/12/28 09:49:50;;;;;;;0.95;0.45;;;19.50;42.70;;;;;;5015925;28;20030;-72
2021/12/28 09:52:16;;;;;;;1.48;0.70;;;19.50;42.70;;;;;;5016164;28;20101;-71
2021/12/28 09:54:42;;;;;;;0.65;0.35;;;19.50;42.70;;;;;;5014506;28;20030;-71
2021/12/28 09:57:08;;;;;;;0.73;0.40;;;19.50;42.70;;;;;;5016013;28;20160;-71
2021/12/28 09:59:34;;;;;;;1.02;0.40;;;19.50;42.80;;;;;;5015759;28;20482;-72
2021/12/28 10:02:06;;;;;;;0.80;0.50;;;19.50;42.70;;;;;;5015927;28;20037;-72
2021/12/28 10:04:32;;;;;;;0.90;0.55;;;19.60;42.70;;;;;;5015620;28;20061;-71
2021/12/28 10:07:25;;;;;;;1.88;0.63;;;19.60;42.80;;;;;;5015703;28;20143;-72
2021/12/28 10:09:51;;;;;;;2.20;0.60;;;19.60;42.70;;;;;;5015673;28;20029;-71
2021/12/28 10:12:50;;;;;;;0.95;0.43;;;19.50;42.80;;;;;;5015614;28;20022;-71
2021/12/28 10:15:22;;;;;;;1.52;0.68;;;19.60;42.70;;;;;;5003748;28;20072;-71
2021/12/28 10:17:51;;;;;;;2.20;0.90;;;19.60;42.90;;;;;;5010359;28;20022;-71
2021/12/28 10:20:21;;;;;;;1.63;0.60;;;19.60;42.90;;;;;;4995839;28;20517;-72
2021/12/28 10:22:52;;;;;;;0.93;0.43;;;19.60;43.00;;;;;;4995776;28;20106;-72
2021/12/28 10:25:22;;;;;;;0.90;0.50;;;19.60;42.90;;;;;;4995666;28;20531;-71
2021/12/28 10:27:50;;;;;;;0.63;0.40;;;19.50;42.80;;;;;;4995809;28;20113;-71
2021/12/28 10:30:28;;;;;;;0.80;0.43;;;19.60;42.90;;;;;;5014380;28;20044;-72
2021/12/28 10:33:00;;;;;;;0.70;0.40;;;19.60;42.90;;;;;;5014690;28;20422;-71
2021/12/28 10:35:32;;;;;;;0.70;0.50;;;19.60;43.00;;;;;;5015238;28;20026;-72
2021/12/28 10:38:00;;;;;;;0.88;0.40;;;19.60;43.00;;;;;;5015137;28;20497;-71
2021/12/28 10:40:34;;;;;;;0.63;0.38;;;19.60;43.00;;;;;;5013722;28;20096;-72
2021/12/28 10:43:23;;;;;;;1.20;0.35;;;19.60;43.00;;;;;;5015257;28;20045;-71
2021/12/28 10:45:51;;;;;;;0.73;0.30;;;19.60;43.00;;;;;;5014879;28;20038;-71
2021/12/28 10:48:22;;;;;;;0.60;0.50;;;19.60;43.00;;;;;;5014881;28;20022;-71
2021/12/28 10:51:14;;;;;;;0.80;0.40;;;19.60;43.00;;;;;;5014867;28;20061;-71
2021/12/28 10:56:31;;;;;;;0.93;0.50;;;19.60;43.10;;;;;;5015233;28;20030;-71
2021/12/28 10:58:58;;;;;;;1.48;0.50;;;19.60;43.20;;;;;;5014785;28;20030;-71
2021/12/28 11:01:28;;;;;;;1.45;0.63;;;19.60;43.10;;;;;;5014700;28;20018;-71
2021/12/28 11:03:57;;;;;;;1.15;0.60;;;19.60;43.10;;;;;;5014748;28;20030;-71
2021/12/28 11:06:29;;;;;;;0.60;0.40;;;19.60;43.10;;;;;;5014564;28;20461;-71
2021/12/28 11:08:58;;;;;;;1.10;0.45;;;19.60;43.10;;;;;;5014394;28;20030;-71
2021/12/28 11:11:25;;;;;;;0.73;0.32;;;19.60;43.10;;;;;;5014574;28;20522;-72
2021/12/28 11:13:59;;;;;;;0.82;0.43;;;19.60;43.10;;;;;;5013386;28;20029;-71
2021/12/28 11:16:26;;;;;;;0.73;0.40;;;19.70;43.10;;;;;;5014359;28;20056;-72
2021/12/28 11:18:58;;;;;;;0.80;0.43;;;19.70;43.20;;;;;;5000291;28;20019;-71
2021/12/28 11:21:28;;;;;;;0.73;0.47;;;19.70;43.20;;;;;;4994543;28;20073;-71
2021/12/28 11:24:07;;;;;;;0.57;0.50;;;19.70;43.20;;;;;;4994708;28;20593;-71
2021/12/28 11:26:37;;;;;;;1.35;0.52;;;19.70;43.20;;;;;;4994706;28;20077;-71
2021/12/28 11:29:09;;;;;;;0.73;0.30;;;19.70;43.20;;;;;;5003702;28;20039;-71
2021/12/28 11:31:41;;;;;;;1.15;0.50;;;19.70;43.20;;;;;;5014214;28;20084;-71
2021/12/28 11:34:18;;;;;;;0.90;0.40;;;19.70;43.20;;;;;;5012947;28;20026;-71
2021/12/28 11:36:56;;;;;;;0.73;0.40;;;19.70;43.30;;;;;;5013962;28;20022;-71
2021/12/28 11:39:27;;;;;;;0.60;0.40;;;19.70;43.20;;;;;;5013892;28;20022;-71
2021/12/28 11:41:53;;;;;;;0.52;0.30;;;19.70;43.30;;;;;;5014056;28;20053;-71
2021/12/28 11:44:21;;;;;;;0.47;0.30;;;19.70;43.20;;;;;;5013005;28;20570;-71
2021/12/28 11:46:48;;;;;;;0.68;0.30;;;19.70;43.30;;;;;;5012563;28;20076;-71
2021/12/28 11:49:15;;;;;;;0.52;0.40;;;19.70;43.30;;;;;;5012453;28;20022;-71
2021/12/28 11:51:44;;;;;;;0.80;0.30;;;19.70;43.30;;;;;;5013470;28;20534;-71
2021/12/28 11:54:12;;;;;;;0.68;0.45;;;19.70;43.20;;;;;;5013696;28;20030;-71
2021/12/28 11:56:42;;;;;;;0.52;0.43;;;19.70;43.20;;;;;;5013508;28;20040;-71
2021/12/28 11:59:23;;;;;;;1.25;0.50;;;19.70;43.30;;;;;;5013732;28;20135;-71
2021/12/28 12:01:52;;;;;;;0.57;0.45;;;19.80;43.30;;;;;;5012290;28;20108;-71
2021/12/28 12:04:30;;;;;;;0.30;0.30;;;19.70;43.30;;;;;;5013361;28;20026;-71
2021/12/28 12:07:16;;;;;;;0.60;0.30;;;19.80;43.30;;;;;;5013358;28;20072;-71
2021/12/28 12:10:05;;;;;;;0.77;0.30;;;19.80;43.40;;;;;;5013495;28;20014;-71
2021/12/28 12:12:43;;;;;;;0.40;0.20;;;19.70;43.30;;;;;;5013329;28;20029;-71
2021/12/28 12:15:13;;;;;;;0.68;0.22;;;19.70;43.40;;;;;;5013259;28;20211;-71
2021/12/28 12:17:40;;;;;;;0.85;0.35;;;19.70;43.50;;;;;;5009174;28;20057;-71
2021/12/28 12:20:16;;;;;;;0.63;0.40;;;19.70;43.40;;;;;;4993638;28;20132;-71
2021/12/28 12:22:43;;;;;;;0.50;0.28;;;19.80;43.50;;;;;;4993696;28;20030;-71
2021/12/28 12:25:12;;;;;;;0.40;0.30;;;19.80;43.50;;;;;;4993439;28;20113;-71
2021/12/28 12:27:54;;;;;;;0.90;0.28;;;19.70;43.50;;;;;;4993638;28;20018;-71
2021/12/28 12:30:27;;;;;;;0.85;0.32;;;19.70;43.50;;;;;;5012925;28;20026;-71
2021/12/28 12:32:55;;;;;;;1.38;0.40;;;19.70;43.60;;;;;;5013268;28;20017;-71
2021/12/28 12:35:28;;;;;;;0.77;0.52;;;19.70;43.50;;;;;;5013223;28;20025;-71
2021/12/28 12:37:54;;;;;;;1.00;0.32;;;19.80;43.60;;;;;;5012941;28;20026;-71
2021/12/28 12:40:19;;;;;;;0.90;0.43;;;19.70;43.50;;;;;;5012908;28;20033;-71
2021/12/28 12:43:09;;;;;;;0.40;0.30;;;19.70;43.50;;;;;;5011875;28;20033;-71
2021/12/28 12:45:52;;;;;;;1.15;0.40;;;19.80;43.50;;;;;;5012808;28;20494;-71
2021/12/28 12:48:36;;;;;;;1.45;0.40;;;19.80;43.50;;;;;;5012931;28;20037;-71
2021/12/28 12:51:23;;;;;;;0.88;0.50;;;19.80;43.70;;;;;;5012968;28;20512;-71
2021/12/28 12:53:58;;;;;;;0.75;0.43;;;19.80;43.60;;;;;;5012945;28;20022;-71
2021/12/28 12:56:34;;;;;;;2.13;0.63;;;19.70;43.70;;;;;;5015586;28;20520;-71